createdAt,value
2019-03-31T00:00:10.499Z,16.13
2019-03-31T00:02:39.254Z,16.23
2019-03-31T00:05:07.784Z,16.10
2019-03-31T00:07:36.478Z,15.87
2019-03-31T00:10:07.476Z,15.50
2019-03-31T00:12:36.008Z,16.03
2019-03-31T00:15:07.125Z,16.20
2019-03-31T00:17:35.654Z,15.90
2019-03-31T00:20:05.888Z,15.33
2019-03-31T00:22:34.723Z,15.83
2019-03-31T00:25:04.335Z,15.13
2019-03-31T00:27:32.942Z,14.40
2019-03-31T00:30:01.510Z,14.37
2019-03-31T00:32:30.039Z,14.10
2019-03-31T00:34:58.530Z,14.00
2019-03-31T00:37:27.354Z,14.70
2019-03-31T00:39:55.811Z,14.67
2019-03-31T00:42:24.286Z,14.73
2019-03-31T00:44:52.746Z,14.37
2019-03-31T00:47:21.218Z,15.07
2019-03-31T00:49:49.675Z,14.60
2019-03-31T00:52:18.155Z,15.33
2019-03-31T00:54:46.606Z,14.70
2019-03-31T00:57:15.154Z,14.57
2019-03-31T00:59:43.681Z,13.83
2019-03-31T01:02:15.983Z,13.37
2019-03-31T01:04:44.859Z,13.70
2019-03-31T01:07:13.972Z,13.47
2019-03-31T01:09:43.294Z,13.60
2019-03-31T01:12:12.047Z,13.57
2019-03-31T01:14:40.662Z,13.00
2019-03-31T01:17:09.682Z,13.67
2019-03-31T01:19:38.915Z,14.07
2019-03-31T01:22:07.703Z,13.20
2019-03-31T01:24:36.258Z,12.93
2019-03-31T01:27:06.914Z,12.90
2019-03-31T01:29:35.816Z,13.60
2019-03-31T01:32:04.575Z,13.47
2019-03-31T01:34:33.103Z,12.10
2019-03-31T01:37:01.970Z,13.23
2019-03-31T01:39:31.688Z,13.63
2019-03-31T01:42:00.144Z,12.07
2019-03-31T01:44:29.024Z,12.00
2019-03-31T01:46:57.733Z,11.50
2019-03-31T01:49:26.531Z,12.97
2019-03-31T01:51:55.015Z,12.67
2019-03-31T01:54:23.547Z,12.00
2019-03-31T01:56:52.383Z,12.20
2019-03-31T01:59:20.834Z,12.00
2019-03-31T02:02:03.122Z,12.57
2019-03-31T02:04:19.494Z,12.43
2019-03-31T02:06:48.044Z,13.00
2019-03-31T02:09:16.496Z,12.90
2019-03-31T02:11:44.967Z,12.87
2019-03-31T02:14:13.418Z,12.67
2019-03-31T02:16:42.287Z,12.27
2019-03-31T02:19:10.742Z,14.07
2019-03-31T02:21:39.219Z,12.87
2019-03-31T02:24:07.683Z,13.30
2019-03-31T02:26:36.166Z,13.00
2019-03-31T02:29:04.895Z,12.67
2019-03-31T02:31:33.371Z,12.50
2019-03-31T02:34:01.823Z,11.57
2019-03-31T02:36:30.303Z,12.80
2019-03-31T02:38:58.832Z,12.77
2019-03-31T02:41:27.392Z,13.13
2019-03-31T02:43:55.848Z,13.10
2019-03-31T02:46:24.477Z,13.30
2019-03-31T02:48:52.941Z,12.50
2019-03-31T02:51:21.472Z,13.30
2019-03-31T02:53:50.035Z,13.03
2019-03-31T02:56:19.207Z,14.53
2019-03-31T02:58:48.509Z,13.40
2019-03-31T03:01:17.480Z,14.47
2019-03-31T03:03:47.705Z,12.90
2019-03-31T03:06:16.408Z,12.73
2019-03-31T03:08:46.963Z,13.57
2019-03-31T03:11:17.605Z,13.30
2019-03-31T03:13:49.080Z,13.90
2019-03-31T03:16:19.893Z,13.63
2019-03-31T03:18:48.771Z,11.97
2019-03-31T03:21:17.314Z,12.97
2019-03-31T03:23:46.164Z,12.40
2019-03-31T03:26:14.865Z,12.73
2019-03-31T03:28:43.396Z,12.10
2019-03-31T03:31:16.154Z,12.20
2019-03-31T03:33:42.656Z,12.43
2019-03-31T03:36:11.729Z,11.87
2019-03-31T03:38:40.328Z,12.40
2019-03-31T03:41:08.923Z,12.07
2019-03-31T03:43:54.280Z,12.27
2019-03-31T03:46:07.742Z,13.10
2019-03-31T03:48:36.363Z,12.63
2019-03-31T03:51:04.969Z,13.00
2019-03-31T03:53:33.665Z,12.57
2019-03-31T03:56:02.276Z,11.73
2019-03-31T03:58:30.833Z,11.53
2019-03-31T04:00:59.535Z,12.53
2019-03-31T04:03:30.710Z,11.90
2019-03-31T04:05:58.360Z,10.77
2019-03-31T04:08:26.916Z,12.37
2019-03-31T04:11:01.100Z,12.20
2019-03-31T04:13:29.659Z,11.63
2019-03-31T04:15:58.294Z,11.70
2019-03-31T04:18:27.174Z,11.67
2019-03-31T04:20:55.706Z,11.27
2019-03-31T04:23:24.548Z,11.00
2019-03-31T04:25:53.086Z,11.70
2019-03-31T04:28:21.622Z,10.43
2019-03-31T04:30:50.183Z,11.43
2019-03-31T04:33:18.719Z,11.70
2019-03-31T04:35:47.268Z,11.23
2019-03-31T04:38:15.914Z,10.90
2019-03-31T04:40:44.434Z,11.40
2019-03-31T04:43:13.320Z,10.70
2019-03-31T04:45:41.948Z,11.03
2019-03-31T04:48:10.485Z,11.17
2019-03-31T04:50:39.043Z,11.00
2019-03-31T04:53:07.538Z,10.60
2019-03-31T04:55:36.037Z,11.43
2019-03-31T04:58:04.516Z,10.43
2019-03-31T05:00:32.980Z,10.97
2019-03-31T05:03:01.540Z,10.63
2019-03-31T05:05:30.076Z,11.60
2019-03-31T05:07:58.851Z,11.47
2019-03-31T05:10:27.479Z,11.10
2019-03-31T05:12:56.325Z,10.70
2019-03-31T05:15:24.856Z,10.20
2019-03-31T05:17:53.317Z,11.23
2019-03-31T05:20:21.880Z,11.63
2019-03-31T05:22:52.845Z,12.10
2019-03-31T05:25:20.543Z,11.50
2019-03-31T05:27:49.006Z,11.23
2019-03-31T05:30:17.642Z,10.73
2019-03-31T05:32:46.171Z,11.50
2019-03-31T05:35:14.666Z,10.70
2019-03-31T05:37:50.794Z,10.27
2019-03-31T05:40:13.549Z,10.47
2019-03-31T05:42:42.084Z,10.37
2019-03-31T05:45:11.084Z,10.60
2019-03-31T05:47:39.550Z,9.83
2019-03-31T05:50:08.156Z,9.97
2019-03-31T05:52:36.711Z,10.43
2019-03-31T05:55:06.956Z,10.63
2019-03-31T05:57:35.439Z,10.40
2019-03-31T06:00:08.304Z,10.37
2019-03-31T06:02:36.790Z,9.30
2019-03-31T06:05:07.247Z,10.60
2019-03-31T06:07:36.120Z,10.60
2019-03-31T06:10:06.464Z,11.67
2019-03-31T06:12:34.920Z,10.80
2019-03-31T06:15:03.743Z,10.70
2019-03-31T06:17:32.279Z,11.20
2019-03-31T06:20:00.765Z,12.57
2019-03-31T06:22:29.305Z,10.93
2019-03-31T06:24:57.863Z,10.10
2019-03-31T06:27:26.324Z,10.67
2019-03-31T06:29:54.783Z,11.13
2019-03-31T06:32:23.263Z,10.80
2019-03-31T06:34:51.727Z,9.70
2019-03-31T06:37:20.283Z,10.77
2019-03-31T06:39:49.045Z,10.23
2019-03-31T06:42:17.608Z,10.67
2019-03-31T06:44:46.070Z,11.27
2019-03-31T06:47:14.630Z,10.10
2019-03-31T06:49:43.165Z,10.70
2019-03-31T06:52:11.651Z,10.67
2019-03-31T06:54:40.179Z,10.80
2019-03-31T06:57:08.926Z,10.97
2019-03-31T06:59:37.569Z,10.50
2019-03-31T07:02:06.172Z,10.10
2019-03-31T07:04:35.085Z,10.60
2019-03-31T07:07:03.611Z,10.73
2019-03-31T07:09:32.561Z,10.70
2019-03-31T07:12:01.019Z,11.27
2019-03-31T07:14:29.828Z,10.87
2019-03-31T07:16:58.325Z,10.63
2019-03-31T07:19:26.856Z,11.70
2019-03-31T07:21:55.346Z,10.67
2019-03-31T07:24:23.880Z,11.10
2019-03-31T07:26:52.603Z,10.90
2019-03-31T07:29:21.332Z,10.93
2019-03-31T07:31:49.820Z,11.33
2019-03-31T07:34:18.356Z,12.23
2019-03-31T07:36:47.109Z,11.40
2019-03-31T07:39:16.080Z,11.60
2019-03-31T07:41:44.748Z,12.40
2019-03-31T07:44:15.356Z,12.90
2019-03-31T07:46:43.772Z,13.73
2019-03-31T07:49:12.333Z,13.10
2019-03-31T07:51:41.148Z,13.97
2019-03-31T07:54:09.632Z,13.07
2019-03-31T07:56:38.177Z,12.43
2019-03-31T07:59:07.111Z,13.27
2019-03-31T08:01:35.644Z,13.90
2019-03-31T08:04:04.112Z,13.10
2019-03-31T08:06:32.679Z,13.57
2019-03-31T08:09:01.142Z,14.80
2019-03-31T08:11:29.704Z,14.70
2019-03-31T08:13:58.168Z,14.27
2019-03-31T08:16:26.656Z,13.90
2019-03-31T08:18:55.196Z,14.37
2019-03-31T08:21:23.684Z,14.77
2019-03-31T08:23:52.452Z,15.30
2019-03-31T08:26:21.024Z,15.37
2019-03-31T08:28:49.488Z,15.57
2019-03-31T08:31:18.288Z,14.93
2019-03-31T08:33:47.076Z,14.57
2019-03-31T08:36:15.543Z,15.87
2019-03-31T08:38:44.104Z,15.00
2019-03-31T08:41:12.568Z,15.57
2019-03-31T08:43:41.052Z,16.67
2019-03-31T08:46:09.588Z,15.20
2019-03-31T08:48:38.079Z,16.87
2019-03-31T08:51:06.616Z,17.30
2019-03-31T08:53:35.108Z,17.23
2019-03-31T08:56:03.573Z,16.57
2019-03-31T08:58:32.200Z,16.73
2019-03-31T09:01:02.384Z,17.07
2019-03-31T09:03:30.848Z,16.83
2019-03-31T09:06:02.299Z,17.40
2019-03-31T09:08:29.605Z,17.50
2019-03-31T09:10:58.164Z,18.33
2019-03-31T09:13:26.630Z,17.87
2019-03-31T09:15:55.530Z,18.60
2019-03-31T09:18:24.091Z,18.60
2019-03-31T09:20:52.579Z,18.70
2019-03-31T09:23:21.042Z,18.70
2019-03-31T09:25:49.615Z,18.20
2019-03-31T09:28:18.148Z,18.20
2019-03-31T09:30:47.084Z,17.77
2019-03-31T09:33:15.632Z,26.57
2019-03-31T09:35:44.168Z,32.30
2019-03-31T09:38:12.655Z,19.50
2019-03-31T09:40:41.196Z,18.30
2019-03-31T09:43:10.024Z,18.67
2019-03-31T09:45:38.557Z,20.07
2019-03-31T09:48:07.115Z,18.27
2019-03-31T09:50:35.577Z,17.50
2019-03-31T09:53:04.141Z,16.90
2019-03-31T09:55:32.684Z,17.80
2019-03-31T09:58:01.344Z,17.27
2019-03-31T10:00:50.899Z,17.70
2019-03-31T10:03:20.592Z,16.70
2019-03-31T10:05:49.571Z,15.97
2019-03-31T10:08:21.719Z,16.50
2019-03-31T10:10:48.523Z,15.10
2019-03-31T10:13:17.051Z,14.47
2019-03-31T10:15:45.540Z,15.13
2019-03-31T10:18:14.075Z,14.53
2019-03-31T10:20:42.632Z,14.67
2019-03-31T10:23:11.095Z,14.67
2019-03-31T10:25:39.649Z,14.40
2019-03-31T10:28:08.196Z,15.53
2019-03-31T10:30:39.291Z,15.67
2019-03-31T10:33:09.427Z,15.07
2019-03-31T10:35:38.112Z,14.60
2019-03-31T10:38:06.807Z,14.37
2019-03-31T10:40:35.484Z,14.70
2019-03-31T10:43:04.229Z,13.73
2019-03-31T10:45:32.751Z,13.67
2019-03-31T10:48:01.235Z,12.97
2019-03-31T10:50:29.699Z,10.53
2019-03-31T10:52:58.485Z,10.77
2019-03-31T10:55:27.093Z,10.18
2019-03-31T10:57:55.858Z,11.75
2019-03-31T11:00:35.174Z,12.20
2019-03-31T11:03:04.448Z,9.75
2019-03-31T11:05:33.214Z,9.20
2019-03-31T11:08:01.712Z,7.95
2019-03-31T11:10:30.342Z,7.75
2019-03-31T11:12:58.939Z,7.37
2019-03-31T11:15:27.940Z,8.95
2019-03-31T11:17:56.471Z,9.68
2019-03-31T11:20:24.968Z,9.75
2019-03-31T11:23:03.940Z,9.13
2019-03-31T11:25:32.503Z,8.98
2019-03-31T11:28:01.289Z,7.45
2019-03-31T11:30:29.771Z,10.08
2019-03-31T11:32:58.319Z,10.18
2019-03-31T11:35:26.771Z,9.15
2019-03-31T11:37:55.629Z,8.00
2019-03-31T11:40:24.158Z,8.48
2019-03-31T11:42:52.720Z,10.10
2019-03-31T11:45:21.684Z,10.38
2019-03-31T11:47:50.175Z,10.35
2019-03-31T11:50:18.980Z,11.20
2019-03-31T11:52:47.472Z,9.83
2019-03-31T11:55:16.080Z,10.30
2019-03-31T11:57:44.553Z,10.33
2019-03-31T12:00:15.093Z,10.03
2019-03-31T12:02:43.965Z,9.97
2019-03-31T12:05:13.146Z,9.20
2019-03-31T12:07:46.981Z,7.40
2019-03-31T12:10:12.292Z,8.80
2019-03-31T12:12:40.747Z,12.97
2019-03-31T12:15:09.679Z,12.70
2019-03-31T12:17:38.215Z,12.17
2019-03-31T12:20:08.335Z,8.40
2019-03-31T12:22:36.945Z,8.50
2019-03-31T12:25:08.950Z,9.37
2019-03-31T12:27:37.478Z,7.83
2019-03-31T12:30:09.481Z,8.50
2019-03-31T12:32:38.858Z,7.90
2019-03-31T12:35:08.016Z,7.57
2019-03-31T12:37:42.945Z,7.37
2019-03-31T12:40:09.028Z,6.93
2019-03-31T12:42:37.536Z,6.33
2019-03-31T12:45:07.200Z,7.90
2019-03-31T12:47:35.659Z,7.50
2019-03-31T12:50:06.280Z,8.00
2019-03-31T12:52:46.041Z,6.73
2019-03-31T12:55:06.040Z,7.13
2019-03-31T12:57:34.852Z,8.80
2019-03-31T13:00:04.958Z,10.70
2019-03-31T13:02:33.841Z,30.37
2019-03-31T13:05:02.401Z,10.73
2019-03-31T13:07:30.856Z,8.50
2019-03-31T13:09:59.336Z,8.13
2019-03-31T13:12:27.792Z,8.20
2019-03-31T13:14:56.280Z,8.70
2019-03-31T13:17:24.738Z,9.33
2019-03-31T13:19:53.196Z,9.13
2019-03-31T13:22:21.686Z,8.70
2019-03-31T13:24:50.215Z,10.47
2019-03-31T13:27:18.704Z,11.30
2019-03-31T13:29:47.167Z,12.30
2019-03-31T13:32:15.658Z,12.40
2019-03-31T13:34:44.581Z,12.87
2019-03-31T13:37:13.171Z,13.63
2019-03-31T13:39:41.635Z,13.30
2019-03-31T13:42:10.128Z,13.90
2019-03-31T13:44:38.675Z,13.27
2019-03-31T13:47:07.428Z,13.50
2019-03-31T13:49:35.924Z,14.63
2019-03-31T13:52:04.805Z,13.80
2019-03-31T13:54:33.439Z,16.60
2019-03-31T13:57:02.375Z,24.60
2019-03-31T13:59:31.779Z,13.90
2019-03-31T14:02:00.570Z,13.50
2019-03-31T14:04:29.248Z,13.03
2019-03-31T14:06:57.712Z,13.13
2019-03-31T14:09:26.203Z,11.87
2019-03-31T14:11:55.034Z,12.60
2019-03-31T14:14:23.523Z,13.23
2019-03-31T14:16:51.985Z,12.57
2019-03-31T14:19:20.472Z,12.60
2019-03-31T14:21:48.944Z,12.57
2019-03-31T14:24:17.412Z,12.60
2019-03-31T14:26:47.723Z,12.57
2019-03-31T14:29:16.450Z,13.70
2019-03-31T14:31:44.936Z,11.90
2019-03-31T14:34:13.523Z,11.40
2019-03-31T14:36:42.165Z,11.70
2019-03-31T14:39:10.964Z,11.93
2019-03-31T14:41:39.859Z,11.30
2019-03-31T14:44:08.472Z,12.50
2019-03-31T14:46:37.333Z,12.20
2019-03-31T14:49:05.788Z,11.60
2019-03-31T14:51:34.327Z,12.10
2019-03-31T14:54:02.811Z,10.90
2019-03-31T14:56:31.570Z,10.53
2019-03-31T14:59:00.124Z,35.97
2019-03-31T15:01:28.593Z,13.27
2019-03-31T15:03:57.416Z,13.20
2019-03-31T15:06:25.932Z,11.20
2019-03-31T15:08:54.878Z,11.37
2019-03-31T15:11:23.552Z,11.03
2019-03-31T15:13:52.115Z,9.73
2019-03-31T15:16:20.581Z,9.43
2019-03-31T15:18:49.532Z,9.00
2019-03-31T15:21:18.083Z,9.63
2019-03-31T15:23:46.808Z,10.60
2019-03-31T15:26:15.591Z,9.90
2019-03-31T15:28:45.497Z,46.57
2019-03-31T15:31:14.244Z,23.03
2019-03-31T15:33:42.699Z,10.17
2019-03-31T15:36:11.188Z,11.03
2019-03-31T15:38:39.662Z,11.30
2019-03-31T15:41:20.627Z,29.13
2019-03-31T15:43:38.411Z,15.30
2019-03-31T15:46:06.877Z,12.70
2019-03-31T15:48:35.364Z,12.63
2019-03-31T15:51:04.195Z,12.90
2019-03-31T15:53:32.760Z,12.50
2019-03-31T15:56:01.228Z,12.83
2019-03-31T15:58:30.152Z,13.03
2019-03-31T16:00:59.044Z,12.17
2019-03-31T16:03:27.960Z,12.00
2019-03-31T16:05:56.423Z,12.90
2019-03-31T16:08:24.907Z,11.17
2019-03-31T16:10:53.369Z,11.63
2019-03-31T16:13:22.372Z,12.87
2019-03-31T16:15:51.168Z,12.20
2019-03-31T16:18:19.699Z,12.13
2019-03-31T16:20:48.288Z,15.37
2019-03-31T16:23:16.744Z,29.10
2019-03-31T16:25:46.867Z,18.90
2019-03-31T16:28:15.348Z,11.63
2019-03-31T16:30:43.835Z,12.97
2019-03-31T16:33:12.368Z,13.37
2019-03-31T16:35:40.867Z,11.13
2019-03-31T16:38:09.776Z,11.33
2019-03-31T16:40:38.307Z,11.57
2019-03-31T16:43:06.791Z,11.63
2019-03-31T16:45:35.604Z,14.50
2019-03-31T16:48:04.596Z,17.53
2019-03-31T16:50:33.058Z,16.40
2019-03-31T16:53:01.551Z,30.27
2019-03-31T16:55:30.083Z,59.17
2019-03-31T16:57:58.576Z,22.97
2019-03-31T17:00:27.108Z,27.70
2019-03-31T17:02:55.572Z,32.67
2019-03-31T17:05:24.377Z,31.70
2019-03-31T17:07:52.911Z,24.97
2019-03-31T17:10:21.468Z,25.57
2019-03-31T17:12:49.938Z,86.10
2019-03-31T17:15:18.920Z,33.67
2019-03-31T17:17:47.452Z,24.73
2019-03-31T17:20:16.697Z,25.03
2019-03-31T17:22:45.159Z,25.50
2019-03-31T17:25:13.904Z,25.80
2019-03-31T17:27:42.365Z,25.90
2019-03-31T17:30:11.296Z,26.63
2019-03-31T17:32:39.819Z,25.63
2019-03-31T17:35:08.289Z,26.40
2019-03-31T17:37:36.772Z,24.90
2019-03-31T17:40:08.780Z,27.70
2019-03-31T17:42:37.343Z,27.63
2019-03-31T17:45:07.522Z,28.70
2019-03-31T17:47:36.079Z,27.90
2019-03-31T17:50:05.780Z,28.83
2019-03-31T17:52:34.384Z,28.57
2019-03-31T17:55:03.500Z,70.63
2019-03-31T17:57:32.063Z,29.00
2019-03-31T18:00:01.005Z,28.70
2019-03-31T18:02:29.565Z,34.57
2019-03-31T18:04:58.096Z,31.60
2019-03-31T18:07:26.627Z,31.33
2019-03-31T18:09:55.121Z,30.40
2019-03-31T18:12:23.571Z,31.50
2019-03-31T18:14:52.156Z,32.47
2019-03-31T18:17:20.620Z,30.90
2019-03-31T18:19:49.110Z,30.93
2019-03-31T18:22:17.579Z,32.23
2019-03-31T18:24:46.408Z,31.53
2019-03-31T18:27:14.943Z,31.43
2019-03-31T18:29:43.701Z,30.67
2019-03-31T18:32:13.136Z,30.17
2019-03-31T18:34:42.101Z,30.90
2019-03-31T18:37:10.928Z,29.90
2019-03-31T18:39:39.411Z,28.93
2019-03-31T18:42:07.875Z,29.60
2019-03-31T18:44:36.412Z,29.97
2019-03-31T18:47:04.977Z,29.40
2019-03-31T18:49:33.510Z,28.57
2019-03-31T18:52:02.141Z,28.47
2019-03-31T18:54:35.188Z,28.07
2019-03-31T18:57:05.716Z,29.57
2019-03-31T18:59:41.543Z,27.87
2019-03-31T19:02:28.219Z,28.57
2019-03-31T19:05:03.964Z,28.27
2019-03-31T19:07:34.460Z,28.47
2019-03-31T19:10:08.853Z,29.30
2019-03-31T19:12:39.407Z,27.80
2019-03-31T19:15:09.728Z,47.13
2019-03-31T19:17:56.253Z,52.23
2019-03-31T19:20:29.395Z,29.37
2019-03-31T19:23:14.600Z,28.03
2019-03-31T19:26:01.147Z,29.03
2019-03-31T19:28:37.067Z,27.60
2019-03-31T19:31:10.849Z,28.70
2019-03-31T19:33:47.048Z,30.03
2019-03-31T19:36:32.331Z,29.30
2019-03-31T19:39:14.919Z,29.43
2019-03-31T19:41:50.776Z,29.73
2019-03-31T19:44:36.264Z,30.63
2019-03-31T19:47:22.616Z,28.03
2019-03-31T19:49:58.580Z,29.30
2019-03-31T19:52:28.693Z,30.97
2019-03-31T19:55:07.737Z,31.07
2019-03-31T19:57:43.863Z,29.93
2019-03-31T20:00:31.320Z,30.43
2019-03-31T20:03:01.502Z,32.70
2019-03-31T20:05:49.761Z,29.43
2019-03-31T20:08:36.278Z,31.77
2019-03-31T20:11:21.551Z,30.97
2019-03-31T20:13:54.393Z,32.20
2019-03-31T20:16:40.724Z,32.70
2019-03-31T20:19:13.497Z,33.23
2019-03-31T20:21:43.675Z,33.20
2019-03-31T20:24:16.623Z,33.50
2019-03-31T20:26:49.756Z,34.00
2019-03-31T20:29:19.889Z,34.03
2019-03-31T20:31:55.936Z,34.20
2019-03-31T20:34:35.372Z,34.40
2019-03-31T20:37:08.376Z,115.83
2019-03-31T20:39:57.040Z,49.13
2019-03-31T20:42:31.640Z,34.23
2019-03-31T20:45:00.340Z,33.67
2019-03-31T20:47:28.975Z,33.00
2019-03-31T20:49:57.539Z,33.83
2019-03-31T20:52:26.104Z,33.00
2019-03-31T20:54:54.639Z,33.40
2019-03-31T20:57:23.128Z,33.13
2019-03-31T20:59:51.592Z,32.50
2019-03-31T21:02:20.051Z,33.27
2019-03-31T21:04:48.925Z,32.70
2019-03-31T21:07:17.464Z,31.83
2019-03-31T21:09:46.042Z,32.60
2019-03-31T21:12:14.570Z,30.67
2019-03-31T21:14:43.063Z,30.73
2019-03-31T21:17:11.600Z,31.83
2019-03-31T21:19:40.088Z,32.80
2019-03-31T21:22:08.879Z,29.27
2019-03-31T21:24:37.339Z,31.57
2019-03-31T21:27:05.828Z,31.37
2019-03-31T21:29:34.632Z,32.27
2019-03-31T21:32:03.211Z,31.07
2019-03-31T21:34:32.104Z,30.87
2019-03-31T21:37:00.671Z,30.20
2019-03-31T21:39:29.203Z,29.10
2019-03-31T21:41:57.765Z,30.23
2019-03-31T21:44:26.227Z,30.93
2019-03-31T21:46:56.084Z,30.27
2019-03-31T21:49:24.864Z,30.07
2019-03-31T21:51:53.332Z,30.37
2019-03-31T21:54:21.895Z,29.93
2019-03-31T21:56:50.364Z,28.80
2019-03-31T21:59:18.852Z,28.50
2019-03-31T22:01:47.796Z,28.20
2019-03-31T22:04:16.285Z,29.20
2019-03-31T22:06:44.744Z,29.50
2019-03-31T22:09:13.612Z,28.17
2019-03-31T22:11:42.500Z,28.00
2019-03-31T22:14:11.012Z,28.00
2019-03-31T22:16:39.640Z,29.27
2019-03-31T22:19:08.099Z,28.20
2019-03-31T22:21:36.669Z,26.87
2019-03-31T22:24:05.552Z,28.03
2019-03-31T22:26:34.109Z,28.20
2019-03-31T22:29:02.568Z,28.17
2019-03-31T22:31:31.127Z,28.43
2019-03-31T22:33:59.596Z,25.43
2019-03-31T22:36:28.151Z,27.90
2019-03-31T22:38:56.608Z,43.87
2019-03-31T22:41:25.139Z,30.60
2019-03-31T22:43:53.959Z,27.10
2019-03-31T22:46:22.496Z,27.60
2019-03-31T22:48:51.033Z,30.13
2019-03-31T22:51:19.599Z,28.37
2019-03-31T22:53:48.132Z,27.10
2019-03-31T22:56:17.113Z,30.23
2019-03-31T22:58:45.576Z,29.57
2019-03-31T23:01:14.176Z,28.07
2019-03-31T23:03:42.664Z,30.27
2019-03-31T23:06:11.195Z,29.07
2019-03-31T23:08:40.032Z,29.10
2019-03-31T23:11:08.496Z,28.73
2019-03-31T23:13:36.960Z,29.77
2019-03-31T23:16:05.617Z,29.30
2019-03-31T23:18:34.149Z,29.80
2019-03-31T23:21:02.717Z,30.40
2019-03-31T23:23:31.243Z,28.57
2019-03-31T23:25:59.705Z,30.00
2019-03-31T23:28:28.267Z,30.13
2019-03-31T23:30:56.800Z,29.97
2019-03-31T23:33:25.363Z,30.80
2019-03-31T23:35:53.888Z,30.57
2019-03-31T23:38:22.728Z,29.50
2019-03-31T23:40:51.268Z,29.47
2019-03-31T23:43:19.811Z,29.40
2019-03-31T23:45:48.427Z,28.93
2019-03-31T23:48:17.226Z,29.97
2019-03-31T23:50:45.783Z,29.90
2019-03-31T23:53:14.244Z,27.67
2019-03-31T23:55:42.876Z,28.40
2019-03-31T23:58:11.331Z,27.47
